KOKC/OKC METAR and TAF weather

Enter ICAO airport designator
Station Type Date Time Source
KOKC METAR 2020/06/03 13:52 UTC NOAA

KOKC 031352Z 21011KT 10SM FEW150 SCT250 24/20 A2999 RMK AO2 SLP139 CB DSNT NW T02440200


Station Type Date Time Source
KOKC Decoded METAR 2020/06/03 13:52 UTC NOAA

WILL ROGERS WORLD AIRPORT, OK, United States (KOKC) 35-23N 97-36W 390M
Jun 03, 2020 - 09:52 AM EDT / 2020.06.03 1352 UTC
Wind: from the SSW (210 degrees) at 13 MPH (11 KT):0
Visibility: 10 mile(s):0
Sky conditions: partly cloudy
Weather: Cumulonimbus clouds observed
Temperature: 75.9 F (24.4 C)
Dew Point: 68.0 F (20.0 C)
Relative Humidity: 76%
Pressure (altimeter): 29.99 in. Hg (1015 hPa)
ob: KOKC 031352Z 21011KT 10SM FEW150 SCT250 24/20 A2999 RMK AO2 SLP139 CB DSNT NW T02440200
cycle: 14

Station Type Date Time Source
KOKC TAF 2020/06/03 12:28 UTC NOAA

TAF KOKC 031126Z 0312/0412 18004KT P6SM SCT150 SCT250
FM031800 20012G18KT P6SM SCT250
FM032300 18010KT P6SM SCT250

Example: see airport list